Galway, Ireland

4:57 PM GMT on February 06, 2016 (GMT +0000)
ICOGALWA4 | | Change Station
CLOSE
Current Station
Personal Weather Station
Location: Galway City, Co. Galway
Elevation: 75 ft
Nearby Weather Stations

Elev 75 ft 53.29 °N, 9.07 °W | Updated 6 seconds ago

Mostly Cloudy
Mostly Cloudy
44.1 °F
Feels Like 36 °F
N
18.0
Wind Variable Wind from West
Gusts 34.0 mph

Today
High -- | Low -- °F
--% Chance of Precip.
Yesterday
High -- | Low -- °F
Precip. -- in
Pressure 28.85 in
Visibility 6.2 miles
Clouds Few 1000 ft
Scattered Clouds 1800 ft
Mostly Cloudy 4400 ft
Windchill 36 °F
Dew Point 39 °F
Humidity 81%
Rainfall 0.20 in
Snow Depth Not available.
8:12 AM 5:28 PM
Waning Crescent, 5% visible
METAR EINN 061630Z 23027KT 9999 FEW010 SCT018CB BKN044 07/02 Q0977 NOSIG
Pressure 28.85 in
Visibility 6.2 miles
Clouds Few 1000 ft
Scattered Clouds 1800 ft
Mostly Cloudy 4400 ft
Windchill 36 °F
Dew Point 39 °F
Humidity 81%
Rainfall 0.20 in
Snow Depth Not available.
8:12 AM 5:28 PM
Waning Crescent, 5% visible
METAR EINN 061630Z 23027KT 9999 FEW010 SCT018CB BKN044 07/02 Q0977 NOSIG

10-Day Weather Forecast

Almanac

Astronomy

Feb. 06, 2016 Rise Set
Actual Time
Civil Twilight
Nautical Twilight
Astronomical Twilight
Moon
Length of Visible Light
Length of Day
Tomorrow will be .
, % of the Moon is Illuminated

Today's Extremes

Country Highs Country Lows

Community

WunderPhotos

Upload Photos

1,891,017 photos uploaded!

WunderBlog® & News

Nearby

Air Quality

  Air Quality AQ Index Pollutant
Not available.

Snow Depth

Station Depth Elevation

Earthquake Activity

City Distance Mag. Time & Date
Minimum magnitude displayed is 2.5.

Coastal Water Temperatures

Place Temperature

Stations

Nearby Weather Stations

Station Location Temp. Windchill Dew Point Humidity Wind Precip. Elev Updated Type